Pagina principale
METAR-TAF:

METAR-TAF

Aeroporti :

Kinshasa, Congo

latitudine: 04-23S, longitudine: 015-26E, altezza: 309 m

Osservazione

Il bollettino è stato emesso 1 ora e 6 minuti fa, alle 22:00 UTC
Vento calmo
Temperature 26°C
Umidità 74%
Pressione 1015 hPa
Visibilità: 4000 m
foschia

METAR: FZAA 222200Z 00000KT 4000 BR NSC 26/21 Q1015 NOSIG

Ora: 00:06 (23:06 UTC)

Previsione

Il bollettino è stato emesso 6 ore e 6 minuti fa, alle 17:00 UTC
Previsione valida dal 22 alle 18 UTC al 23 alle 24 UTC
Vento 4 kt da sud-ovest
Visibilità: 4000 m
Poco nuvoloso ad un'altezza di 1600 ft
foschia
Probabilità 30%
dal 23 alle 03 UTC al 23 alle 06 UTC
Nubi sparse ad un'altezza di 1600 ft
Poco nuvoloso ad un'altezza di 2600 ft, Cumulonembo.
temporale
Evoluzione graduale
dal 23 alle 08 UTC al 23 alle 10 UTC
Vento 10 kt da nord-ovest
Visibilità: 7000 m

TAF: FZAA 221700Z 2218/2324 23004KT 4000 BR FEW016 PROB30 2303/2306 TS SCT016 FEW026CB BECMG 2308/2310 32010KT 7000 NSW

Osservazioni e previsioni meteorologiche di più di 4000 aeroporti (messaggi METAR e TAF).

Le stazioni disponibili sono rappresentate dai dischi gialli e rossi sulla carta.

Puntare il mouse per vedere il nome della stazione.

Clicca sopra per visualizzare le osservazioni e previsioni meteorologiche.

Per cambiare la mappa : fare clic sui pulsanti verdi con una croce nera per ingrandire, il pulsante verde con un trattino per diminuire, o sulla freccia verde per le mappe adiacenti.


METAR-TAF: